Time;durP1;ratioP1;P1;durP2;ratioP2;P2;SDS_P1;SDS_P2;PMS_P1;PMS_P2;Temp;Humidity;BMP_temperature;BMP_pressure;BME280_temperature;BME280_humidity;BME280_pressure;Samples;Min_cycle;Max_cycle;Signal;HPM_P1;HPM_P2
2021/01/29 00:00:31;;;;;;;9.07;6.80;;;;;;;0.72;83.51;99575.16;5018248;28;20203;-80
2021/01/29 00:02:58;;;;;;;9.37;6.80;;;;;;;0.71;83.61;99569.06;5020164;28;20206;-80
2021/01/29 00:05:29;;;;;;;11.53;7.90;;;;;;;0.72;83.54;99575.16;5017468;28;20231;-79
2021/01/29 00:07:55;;;;;;;12.80;7.37;;;;;;;0.72;83.43;99573.34;5024486;28;20207;-82
2021/01/29 00:10:21;;;;;;;9.17;6.90;;;;;;;0.73;83.80;99566.34;5025036;28;20213;-81
2021/01/29 00:12:47;;;;;;;9.87;7.50;;;;;;;0.72;83.70;99549.78;5022256;28;20223;-80
2021/01/29 00:15:17;;;;;;;10.83;7.33;;;;;;;0.73;83.58;99541.00;5026749;28;20234;-81
2021/01/29 00:17:44;;;;;;;10.63;7.20;;;;;;;0.74;83.88;99541.84;5029051;28;20205;-80
2021/01/29 00:20:14;;;;;;;9.73;6.97;;;;;;;0.75;83.70;99535.69;5019083;28;20207;-82
2021/01/29 00:22:41;;;;;;;9.67;7.47;;;;;;;0.75;83.76;99535.69;5026372;28;20210;-79
2021/01/29 00:25:09;;;;;;;14.23;8.63;;;;;;;0.76;84.01;99533.00;5016088;28;20257;-80
2021/01/29 00:27:36;;;;;;;10.57;7.20;;;;;;;0.79;84.04;99532.03;5016315;28;20210;-79
2021/01/29 00:30:03;;;;;;;12.50;7.77;;;;;;;0.80;83.79;99537.22;5017601;28;20207;-81
2021/01/29 00:32:30;;;;;;;10.07;6.90;;;;;;;0.81;83.98;99545.94;5019689;28;20203;-81
2021/01/29 00:34:56;;;;;;;13.17;7.77;;;;;;;0.83;83.84;99536.25;5022579;28;20234;-81
2021/01/29 00:37:22;;;;;;;11.07;7.93;;;;;;;0.84;84.11;99533.56;5020374;28;20203;-81
2021/01/29 00:39:48;;;;;;;12.57;7.97;;;;;;;0.85;84.11;99530.03;5031627;28;20653;-80
2021/01/29 00:42:14;;;;;;;12.80;8.20;;;;;;;0.85;83.97;99523.94;5021753;28;20729;-80
2021/01/29 00:44:40;;;;;;;15.70;8.67;;;;;;;0.84;83.80;99506.50;5018482;28;20227;-80
2021/01/29 00:47:06;;;;;;;12.70;8.57;;;;;;;0.83;83.89;99505.66;5024618;28;20260;-81
2021/01/29 00:49:33;;;;;;;12.60;8.33;;;;;;;0.84;84.29;99506.50;5015849;28;20207;-81
2021/01/29 00:51:59;;;;;;;13.40;8.80;;;;;;;0.85;83.90;99508.22;5015316;28;20207;-80
2021/01/29 00:54:25;;;;;;;12.33;8.27;;;;;;;0.85;84.16;99511.69;5010807;28;20242;-79
2021/01/29 00:56:51;;;;;;;13.03;8.70;;;;;;;0.87;83.92;99506.38;5022322;28;20616;-80
2021/01/29 00:59:17;;;;;;;12.53;8.40;;;;;;;0.87;84.21;99502.00;5021696;28;20229;-80
2021/01/29 01:01:43;;;;;;;14.00;9.23;;;;;;;0.86;84.02;99502.91;5011485;28;20657;-80
2021/01/29 01:04:11;;;;;;;12.63;8.33;;;;;;;0.86;84.16;99504.66;5020758;28;20359;-81
2021/01/29 01:06:38;;;;;;;12.67;9.23;;;;;;;0.86;84.49;99513.38;5017114;28;20210;-81
2021/01/29 01:09:04;;;;;;;11.43;7.63;;;;;;;0.85;84.23;99510.81;5019925;28;20214;-80
2021/01/29 01:11:30;;;;;;;13.37;8.90;;;;;;;0.84;84.29;99516.97;5026159;28;20605;-80
2021/01/29 01:13:56;;;;;;;13.90;8.77;;;;;;;0.84;84.15;99520.47;5022366;28;20226;-82
2021/01/29 01:16:22;;;;;;;12.83;9.00;;;;;;;0.84;84.34;99517.84;5030277;28;20214;-81
2021/01/29 01:18:48;;;;;;;13.80;9.17;;;;;;;0.85;84.46;99514.31;5023546;28;20219;-81
2021/01/29 01:21:14;;;;;;;13.37;7.97;;;;;;;0.85;84.54;99509.06;5015248;28;20206;-81
2021/01/29 01:23:41;;;;;;;13.50;8.83;;;;;;;0.85;84.30;99503.81;5028942;28;20294;-82
2021/01/29 01:26:07;;;;;;;12.87;8.93;;;;;;;0.83;84.40;99495.16;5017140;28;20209;-82
2021/01/29 01:28:33;;;;;;;13.27;8.57;;;;;;;0.84;84.48;99496.88;5026634;28;20297;-81
2021/01/29 01:30:59;;;;;;;12.70;8.33;;;;;;;0.84;84.38;99496.03;5017782;28;20207;-80
2021/01/29 01:33:25;;;;;;;12.57;8.03;;;;;;;0.83;84.21;99482.06;5016215;28;20237;-81
2021/01/29 01:35:51;;;;;;;12.73;8.17;;;;;;;0.84;84.21;99472.44;5016460;28;20226;-81
2021/01/29 01:38:17;;;;;;;12.37;8.20;;;;;;;0.83;84.46;99471.56;5021447;28;20680;-82
2021/01/29 01:40:46;;;;;;;11.60;8.37;;;;;;;0.83;84.47;99465.47;5015167;28;20234;-81
2021/01/29 01:43:12;;;;;;;11.63;8.87;;;;;;;0.83;84.38;99462.88;5023466;28;20206;-81
2021/01/29 01:45:55;;;;;;;10.90;7.03;;;;;;;0.82;84.76;99446.28;5029879;28;20226;-80
2021/01/29 01:48:41;;;;;;;11.63;7.87;;;;;;;0.81;84.42;99443.72;5014402;28;20202;-80
2021/01/29 01:51:08;;;;;;;11.37;7.93;;;;;;;0.79;84.24;99442.94;5019596;28;20205;-81
2021/01/29 01:53:40;;;;;;;10.67;7.83;;;;;;;0.79;84.19;99432.44;5012837;28;20228;-81
2021/01/29 01:56:14;;;;;;;10.70;8.23;;;;;;;0.76;84.29;99424.72;5027067;28;20719;-80
2021/01/29 01:58:43;;;;;;;12.77;8.80;;;;;;;0.74;84.30;99419.53;5020361;28;20609;-81
2021/01/29 02:01:10;;;;;;;12.57;8.67;;;;;;;0.74;84.35;99416.06;5019180;28;20633;-80
2021/01/29 02:03:36;;;;;;;11.30;7.73;;;;;;;0.71;84.48;99403.97;5026410;28;20570;-80
2021/01/29 02:06:04;;;;;;;12.60;8.30;;;;;;;0.68;84.61;99407.56;5021261;28;20233;-80
2021/01/29 02:08:34;;;;;;;10.87;8.37;;;;;;;0.67;84.36;99410.25;5030106;28;20202;-80
2021/01/29 02:11:01;;;;;;;11.93;8.00;;;;;;;0.64;84.18;99390.28;5024094;28;20206;-80
2021/01/29 02:13:27;;;;;;;13.43;7.40;;;;;;;0.62;84.46;99386.00;5027143;28;20740;-80
2021/01/29 02:15:59;;;;;;;10.73;7.73;;;;;;;0.58;84.54;99373.94;5029439;28;20230;-81
2021/01/29 02:18:37;;;;;;;9.27;7.60;;;;;;;0.54;84.54;99364.50;5021140;28;20198;-81
2021/01/29 02:21:37;;;;;;;11.37;7.87;;;;;;;0.51;84.60;99368.16;5019067;28;20256;-81
2021/01/29 02:24:35;;;;;;;11.30;8.07;;;;;;;0.48;84.73;99365.66;5021594;28;20247;-80
2021/01/29 02:27:33;;;;;;;13.57;7.93;;;;;;;0.44;84.59;99353.59;5023733;28;20209;-81
2021/01/29 02:30:14;;;;;;;12.53;7.90;;;;;;;0.42;84.51;99352.81;4991050;28;20207;-80
2021/01/29 02:33:21;;;;;;;11.23;7.67;;;;;;;0.40;84.75;99352.03;5029455;28;20199;-80
2021/01/29 02:36:20;;;;;;;13.43;8.40;;;;;;;0.38;84.79;99343.38;5020810;28;20735;-80
2021/01/29 02:39:14;;;;;;;11.87;7.60;;;;;;;0.37;84.88;99338.19;5028762;28;20649;-80
2021/01/29 02:42:04;;;;;;;11.47;8.10;;;;;;;0.34;84.91;99336.59;5018847;28;20563;-82
2021/01/29 02:44:42;;;;;;;11.30;7.90;;;;;;;0.32;84.79;99325.31;5027091;28;20250;-80
2021/01/29 02:47:12;;;;;;;13.53;8.43;;;;;;;0.30;85.17;99327.16;5022676;28;20201;-81
2021/01/29 02:50:00;;;;;;;11.43;7.73;;;;;;;0.27;85.12;99309.81;5020096;28;20206;-80
2021/01/29 02:52:32;;;;;;;12.20;8.23;;;;;;;0.26;84.94;99299.38;5020431;28;20199;-80
2021/01/29 02:55:08;;;;;;;12.23;7.93;;;;;;;0.22;85.48;99289.97;5029195;28;20237;-80
2021/01/29 02:57:42;;;;;;;14.30;8.47;;;;;;;0.22;85.12;99271.63;5022652;28;20234;-80
2021/01/29 03:00:11;;;;;;;10.80;7.67;;;;;;;0.20;85.21;99258.59;5012232;28;20236;-82
2021/01/29 03:02:46;;;;;;;11.37;7.33;;;;;;;0.20;85.42;99244.66;5024245;28;20233;-80
2021/01/29 03:05:16;;;;;;;10.77;6.50;;;;;;;0.19;85.36;99233.34;5026087;28;20222;-82
2021/01/29 03:07:56;;;;;;;12.83;8.33;;;;;;;0.17;85.42;99234.34;5027540;28;20202;-81
2021/01/29 03:10:34;;;;;;;11.00;7.17;;;;;;;0.16;85.36;99225.66;5018127;28;20199;-80
2021/01/29 03:13:05;;;;;;;9.57;6.17;;;;;;;0.14;85.34;99216.16;5013644;28;20227;-79
2021/01/29 03:15:37;;;;;;;12.43;8.00;;;;;;;0.12;85.89;99220.59;5030207;28;20222;-79
2021/01/29 03:18:17;;;;;;;10.47;6.67;;;;;;;0.10;85.51;99211.97;5032151;28;20210;-78
2021/01/29 03:20:51;;;;;;;9.47;7.27;;;;;;;0.09;85.70;99207.63;5033574;28;20214;-78
2021/01/29 03:23:24;;;;;;;12.63;7.40;;;;;;;0.08;85.68;99209.41;5026522;28;20203;-78
2021/01/29 03:25:56;;;;;;;10.50;7.33;;;;;;;0.07;85.83;99199.00;5022911;28;20632;-78
2021/01/29 03:28:25;;;;;;;9.73;7.33;;;;;;;0.06;85.74;99182.44;5035556;28;20199;-78
2021/01/29 03:30:54;;;;;;;10.57;7.70;;;;;;;0.06;85.69;99187.69;5019162;28;20207;-78
2021/01/29 03:33:24;;;;;;;13.27;8.40;;;;;;;0.04;85.66;99179.03;5029679;28;20223;-80
2021/01/29 03:35:54;;;;;;;10.23;7.30;;;;;;;0.03;85.97;99177.34;5021581;28;20234;-79
2021/01/29 03:38:26;;;;;;;10.90;7.90;;;;;;;0.03;85.86;99166.88;5032654;28;20293;-79
2021/01/29 03:41:02;;;;;;;11.50;8.10;;;;;;;0.03;85.73;99158.16;5013965;28;20211;-79
2021/01/29 03:43:33;;;;;;;13.87;7.80;;;;;;;0.03;85.95;99158.16;5027855;28;20209;-79
2021/01/29 03:46:08;;;;;;;13.40;8.63;;;;;;;0.03;86.11;99152.94;5024439;28;20227;-79
2021/01/29 03:48:42;;;;;;;10.20;7.27;;;;;;;0.04;85.97;99152.00;5032749;28;20216;-78
2021/01/29 03:51:13;;;;;;;12.17;7.70;;;;;;;0.03;86.00;99150.31;5027377;28;20202;-78
2021/01/29 03:53:49;;;;;;;14.73;8.40;;;;;;;0.03;86.26;99147.69;5031024;28;20207;-79
2021/01/29 03:56:39;;;;;;;12.83;9.27;;;;;;;0.02;86.03;99156.47;5018312;28;20228;-79
2021/01/29 03:59:15;;;;;;;12.77;8.13;;;;;;;0.01;86.32;99153.00;5021692;28;20208;-80
2021/01/29 04:01:51;;;;;;;12.80;7.80;;;;;;;0.00;86.15;99152.16;5022395;28;20203;-79
2021/01/29 04:04:26;;;;;;;9.43;7.20;;;;;;;0.00;86.04;99130.38;5026191;28;20230;-79
2021/01/29 04:06:59;;;;;;;12.53;7.93;;;;;;;-0.01;85.88;99126.91;5029040;28;20209;-80
2021/01/29 04:09:31;;;;;;;13.53;8.70;;;;;;;-0.01;86.15;99118.22;5035438;28;20271;-80
2021/01/29 04:12:01;;;;;;;12.17;8.80;;;;;;;-0.01;86.21;99108.59;5027364;28;20202;-80
2021/01/29 04:14:34;;;;;;;12.00;8.80;;;;;;;-0.02;86.32;99099.06;5020273;28;20239;-80
2021/01/29 04:17:05;;;;;;;11.50;7.90;;;;;;;-0.04;86.30;99090.41;5029074;28;20214;-79
2021/01/29 04:19:36;;;;;;;11.67;8.40;;;;;;;-0.03;86.30;99086.88;5023377;28;20199;-80
2021/01/29 04:22:09;;;;;;;14.23;8.30;;;;;;;-0.05;86.20;99070.41;5033869;28;20213;-80
2021/01/29 04:24:39;;;;;;;14.40;9.07;;;;;;;-0.05;85.89;99070.41;5028380;28;20230;-80
2021/01/29 04:27:11;;;;;;;12.87;8.80;;;;;;;-0.04;86.20;99073.88;5035222;28;20209;-78
2021/01/29 04:29:41;;;;;;;13.20;9.23;;;;;;;-0.06;86.37;99068.69;5030751;28;20200;-79
2021/01/29 04:32:11;;;;;;;12.90;9.67;;;;;;;-0.06;86.24;99063.47;5034732;28;20228;-78
2021/01/29 04:34:40;;;;;;;13.93;9.17;;;;;;;-0.05;86.58;99053.84;5023884;28;20230;-79
2021/01/29 04:37:11;;;;;;;12.20;8.20;;;;;;;-0.05;86.52;99054.69;5034227;28;20693;-78
2021/01/29 04:39:42;;;;;;;12.57;8.40;;;;;;;-0.05;86.24;99044.22;5023401;28;20289;-78
2021/01/29 04:42:20;;;;;;;12.20;8.83;;;;;;;-0.03;86.43;99031.06;5020968;28;20596;-78
2021/01/29 04:45:14;;;;;;;12.50;9.37;;;;;;;-0.03;86.67;99034.53;5023654;28;20222;-79
2021/01/29 04:47:46;;;;;;;15.33;9.53;;;;;;;-0.03;86.54;99037.16;5029735;28;20199;-78
2021/01/29 04:50:31;;;;;;;12.30;8.67;;;;;;;-0.02;86.78;99022.31;5030511;28;20202;-79
2021/01/29 04:53:26;;;;;;;11.97;8.70;;;;;;;-0.01;86.38;99017.00;5028925;28;20224;-78
2021/01/29 04:56:27;;;;;;;13.50;9.80;;;;;;;-0.01;86.61;99011.78;5017123;28;20251;-78
2021/01/29 04:59:21;;;;;;;14.23;9.10;;;;;;;0.00;86.89;99002.97;5020119;28;20213;-79
2021/01/29 05:02:15;;;;;;;14.17;9.17;;;;;;;0.03;86.75;98998.50;5022126;28;21117;-78
2021/01/29 05:05:06;;;;;;;13.70;9.43;;;;;;;0.03;86.51;99007.22;5026362;28;20222;-77
2021/01/29 05:07:58;;;;;;;14.83;9.17;;;;;;;0.05;86.71;98983.59;5016789;28;20207;-78
2021/01/29 05:11:07;;;;;;;12.77;8.93;;;;;;;0.06;86.75;98988.75;5015928;28;20205;-79
2021/01/29 05:14:06;;;;;;;15.53;8.87;;;;;;;0.08;86.82;98980.84;4915183;29;20219;-79
2021/01/29 05:17:06;;;;;;;11.53;7.47;;;;;;;0.08;86.76;98973.84;5013590;28;20557;-80
2021/01/29 05:19:55;;;;;;;12.67;7.87;;;;;;;0.09;86.73;98962.44;5009073;28;20229;-79
2021/01/29 05:22:51;;;;;;;11.30;7.90;;;;;;;0.08;86.75;98958.13;5009515;28;20215;-77
2021/01/29 05:25:43;;;;;;;12.63;8.73;;;;;;;0.10;86.76;98963.28;5008231;28;20230;-77
2021/01/29 05:28:29;;;;;;;10.77;7.67;;;;;;;0.11;86.83;98954.53;5007370;28;20203;-76
2021/01/29 05:31:07;;;;;;;13.50;9.03;;;;;;;0.11;86.92;98951.91;5008333;28;20688;-79
2021/01/29 05:33:53;;;;;;;12.07;8.37;;;;;;;0.13;86.76;98942.22;5008970;28;20241;-78
2021/01/29 05:36:32;;;;;;;12.53;8.27;;;;;;;0.11;86.68;98923.09;5007835;28;20206;-79
2021/01/29 05:39:11;;;;;;;13.97;8.03;;;;;;;0.13;86.76;98923.88;5008431;28;20719;-77
2021/01/29 05:41:57;;;;;;;12.23;8.30;;;;;;;0.11;86.58;98917.88;5013077;28;20205;-79
2021/01/29 05:45:00;;;;;;;12.20;8.73;;;;;;;0.11;86.62;98920.50;5011393;28;20273;-79
2021/01/29 05:47:52;;;;;;;11.73;8.40;;;;;;;0.09;86.86;98910.09;5014542;28;20195;-78
2021/01/29 05:50:31;;;;;;;12.87;9.00;;;;;;;0.10;86.77;98901.31;5013378;28;20199;-79
2021/01/29 05:53:06;;;;;;;10.60;7.97;;;;;;;0.10;86.75;98901.31;5011506;28;20202;-80
2021/01/29 05:55:42;;;;;;;14.57;9.00;;;;;;;0.10;86.99;98896.09;5014403;28;20231;-80
2021/01/29 05:58:41;;;;;;;11.13;7.37;;;;;;;0.10;86.94;98890.00;5014734;28;20573;-79
2021/01/29 06:01:31;;;;;;;14.43;8.80;;;;;;;0.10;86.81;98879.53;5013117;28;20206;-79
2021/01/29 06:04:41;;;;;;;12.73;9.33;;;;;;;0.09;86.78;98875.22;5004694;28;20226;-79
2021/01/29 06:08:01;;;;;;;12.07;7.60;;;;;;;0.08;87.00;98881.38;4966319;28;20214;-77
2021/01/29 06:10:49;;;;;;;12.13;8.33;;;;;;;0.06;86.71;98867.50;4956805;28;20618;-79
2021/01/29 06:13:50;;;;;;;12.23;9.27;;;;;;;0.04;86.85;98859.72;4970103;28;20275;-79
2021/01/29 06:17:02;;;;;;;15.63;10.10;;;;;;;0.05;86.72;98856.19;5016024;28;20210;-79
2021/01/29 06:20:01;;;;;;;12.60;9.20;;;;;;;0.05;86.73;98850.09;5023975;28;20207;-78
2021/01/29 06:23:00;;;;;;;19.80;9.90;;;;;;;0.04;86.92;98836.19;4967904;28;20662;-77
2021/01/29 06:26:06;;;;;;;15.10;10.67;;;;;;;0.04;87.15;98835.34;5011451;28;20277;-78
2021/01/29 06:29:18;;;;;;;16.20;10.07;;;;;;;0.05;87.12;98821.31;5009566;28;20210;-79
2021/01/29 06:32:23;;;;;;;15.53;9.40;;;;;;;0.06;86.88;98816.00;4979054;28;20215;-79
2021/01/29 06:35:11;;;;;;;13.33;8.53;;;;;;;0.07;86.84;98806.41;5000928;28;20222;-78
2021/01/29 06:37:50;;;;;;;15.37;9.53;;;;;;;0.09;86.74;98801.94;5014292;28;20231;-78
2021/01/29 06:40:25;;;;;;;15.20;8.30;;;;;;;0.09;87.07;98794.06;5017281;28;20211;-78
2021/01/29 06:43:24;;;;;;;16.63;10.43;;;;;;;0.07;87.16;98788.06;5015900;28;20649;-78
2021/01/29 06:46:03;;;;;;;16.87;9.80;;;;;;;0.07;87.07;98780.22;5015483;28;20634;-77
2021/01/29 06:48:47;;;;;;;18.97;11.47;;;;;;;0.08;87.19;98781.91;5014727;28;20557;-78
2021/01/29 06:51:47;;;;;;;16.83;10.00;;;;;;;0.09;87.23;98773.16;5013239;28;20198;-78
2021/01/29 06:54:34;;;;;;;19.13;11.63;;;;;;;0.11;87.21;98779.16;5016318;28;20258;-78
2021/01/29 06:57:10;;;;;;;14.80;9.77;;;;;;;0.11;87.33;98781.75;5019124;28;20218;-79
2021/01/29 07:00:03;;;;;;;22.67;12.00;;;;;;;0.11;87.58;98772.16;5021744;28;20205;-79
2021/01/29 07:03:17;;;;;;;20.37;12.50;;;;;;;0.15;87.09;98772.84;5016667;28;20199;-79
2021/01/29 07:06:14;;;;;;;19.80;12.50;;;;;;;0.15;87.35;98757.97;5020166;28;20237;-79
2021/01/29 07:08:58;;;;;;;21.27;12.83;;;;;;;0.16;87.47;98757.06;5020895;28;20604;-80
2021/01/29 07:11:48;;;;;;;18.47;11.23;;;;;;;0.18;87.41;98756.97;5019606;28;20203;-79
2021/01/29 07:14:29;;;;;;;22.27;11.90;;;;;;;0.19;87.43;98751.63;5021208;28;20231;-78
2021/01/29 07:17:07;;;;;;;21.23;11.67;;;;;;;0.20;87.37;98749.88;5017853;28;20206;-81
2021/01/29 07:20:10;;;;;;;23.60;13.27;;;;;;;0.20;87.52;98742.88;5024259;28;20199;-78
2021/01/29 07:22:53;;;;;;;20.30;12.07;;;;;;;0.21;87.49;98741.09;5022076;28;20199;-78
2021/01/29 07:25:27;;;;;;;19.10;10.17;;;;;;;0.24;87.61;98743.56;5018800;28;20638;-80
2021/01/29 07:28:05;;;;;;;20.47;12.23;;;;;;;0.24;87.38;98735.72;5017829;28;20202;-80
2021/01/29 07:30:51;;;;;;;20.47;12.70;;;;;;;0.24;87.42;98727.84;5015068;28;20201;-79
2021/01/29 07:33:27;;;;;;;21.97;12.90;;;;;;;0.25;87.47;98726.94;5017840;28;20204;-79
2021/01/29 07:36:15;;;;;;;22.27;13.67;;;;;;;0.26;87.48;98726.00;5018172;28;20218;-79
2021/01/29 07:39:08;;;;;;;20.90;14.57;;;;;;;0.26;87.41;98719.00;5019862;28;20210;-78
2021/01/29 07:41:48;;;;;;;26.23;14.97;;;;;;;0.27;87.59;98720.69;5019667;28;20215;-79
2021/01/29 07:44:29;;;;;;;24.17;14.03;;;;;;;0.27;87.46;98714.59;5017532;28;20697;-78
2021/01/29 07:47:10;;;;;;;29.73;15.63;;;;;;;0.27;87.45;98715.44;5020103;28;20202;-79
2021/01/29 07:50:06;;;;;;;27.30;14.97;;;;;;;0.29;87.33;98723.22;5022448;28;20207;-79
2021/01/29 07:52:43;;;;;;;29.23;16.43;;;;;;;0.29;87.46;98712.75;5016590;28;20204;-79
2021/01/29 07:55:18;;;;;;;25.40;14.23;;;;;;;0.28;87.52;98703.22;5018457;28;20693;-78
2021/01/29 07:58:16;;;;;;;27.90;15.20;;;;;;;0.29;87.39;98704.91;5025981;28;20206;-79
2021/01/29 08:01:13;;;;;;;24.43;13.93;;;;;;;0.32;87.45;98707.38;5024224;28;20212;-79
2021/01/29 08:04:04;;;;;;;25.77;14.33;;;;;;;0.31;87.46;98709.13;5017828;28;20666;-78
2021/01/29 08:06:38;;;;;;;27.80;15.27;;;;;;;0.32;87.42;98702.97;5020523;28;20668;-78
2021/01/29 08:09:16;;;;;;;25.73;13.37;;;;;;;0.34;87.44;98697.66;5022965;28;20718;-78
2021/01/29 08:11:47;;;;;;;27.37;14.40;;;;;;;0.33;87.59;98699.44;5020524;28;20213;-80
2021/01/29 08:14:54;;;;;;;25.43;15.23;;;;;;;0.34;87.38;98698.50;5020322;28;20288;-79
2021/01/29 08:17:35;;;;;;;29.37;13.63;;;;;;;0.35;87.37;98696.75;5018404;28;20237;-79
2021/01/29 08:20:17;;;;;;;26.20;13.50;;;;;;;0.36;87.49;98693.16;5019811;28;20210;-78
2021/01/29 08:22:57;;;;;;;22.37;13.73;;;;;;;0.37;87.69;98699.25;5020540;28;20204;-79
2021/01/29 08:25:51;;;;;;;24.37;14.30;;;;;;;0.37;87.61;98694.84;5015523;28;20238;-79
2021/01/29 08:29:14;;;;;;;25.30;14.20;;;;;;;0.38;87.46;98691.31;5000894;28;20211;-80
2021/01/29 08:32:04;;;;;;;24.33;13.60;;;;;;;0.38;87.39;98687.84;5018548;28;20199;-81
2021/01/29 08:34:56;;;;;;;24.90;13.97;;;;;;;0.38;87.52;98686.06;5016762;28;20273;-80
2021/01/29 08:37:32;;;;;;;24.40;13.73;;;;;;;0.40;87.64;98686.84;5017684;28;20207;-80
2021/01/29 08:40:13;;;;;;;23.87;14.00;;;;;;;0.41;87.41;98690.31;5019577;28;20210;-79
2021/01/29 08:42:57;;;;;;;20.63;13.27;;;;;;;0.43;87.49;98691.06;5019913;28;20633;-79
2021/01/29 08:45:34;;;;;;;25.53;14.33;;;;;;;0.43;87.51;98683.22;5017899;28;20333;-79
2021/01/29 08:48:13;;;;;;;24.57;14.67;;;;;;;0.43;87.58;98685.84;5017999;28;20202;-79
2021/01/29 08:50:59;;;;;;;23.13;14.40;;;;;;;0.45;87.42;98676.13;5016599;28;20198;-81
2021/01/29 08:54:02;;;;;;;25.43;15.07;;;;;;;0.45;87.70;98670.88;5015165;28;20202;-82
2021/01/29 08:56:39;;;;;;;22.77;13.80;;;;;;;0.44;87.78;98672.66;5014513;28;20199;-79
2021/01/29 08:59:08;;;;;;;23.07;13.70;;;;;;;0.47;87.68;98674.28;5015547;28;20217;-80
2021/01/29 09:01:40;;;;;;;20.20;12.80;;;;;;;0.48;87.53;98670.72;5015879;28;20237;-79
2021/01/29 09:04:15;;;;;;;20.60;12.97;;;;;;;0.48;88.04;98671.56;5015833;28;20225;-79
2021/01/29 09:06:45;;;;;;;18.90;12.37;;;;;;;0.49;87.70;98662.78;5015024;28;20202;-79
2021/01/29 09:09:17;;;;;;;21.67;12.33;;;;;;;0.50;87.65;98668.88;5015671;28;20217;-80
2021/01/29 09:11:48;;;;;;;18.03;11.70;;;;;;;0.50;87.80;98664.50;5015680;28;20607;-79
2021/01/29 09:14:22;;;;;;;19.33;11.90;;;;;;;0.51;87.59;98660.09;5014738;28;20238;-80
2021/01/29 09:16:49;;;;;;;18.03;11.40;;;;;;;0.52;87.46;98657.41;5014463;28;20203;-79
2021/01/29 09:19:17;;;;;;;18.63;10.87;;;;;;;0.51;87.75;98654.84;5016640;28;20214;-83
2021/01/29 09:22:00;;;;;;;15.70;10.77;;;;;;;0.51;87.63;98666.19;5017489;28;20207;-83
2021/01/29 09:24:40;;;;;;;18.80;10.60;;;;;;;0.51;87.62;98658.31;5016674;28;20237;-83
2021/01/29 09:27:25;;;;;;;17.00;10.33;;;;;;;0.50;87.65;98651.41;5016450;28;20244;-82
2021/01/29 09:29:55;;;;;;;16.97;10.80;;;;;;;0.49;87.38;98652.31;5017118;28;20198;-83
2021/01/29 09:32:44;;;;;;;16.77;10.53;;;;;;;0.49;87.35;98654.09;5017875;28;20217;-81
2021/01/29 09:35:14;;;;;;;13.97;10.13;;;;;;;0.47;87.26;98654.16;5017697;28;20235;-84
2021/01/29 09:37:46;;;;;;;15.80;10.73;;;;;;;0.47;87.51;98659.41;5017801;28;20351;-83
2021/01/29 09:40:21;;;;;;;18.33;11.13;;;;;;;0.47;87.74;98650.72;5017425;28;20542;-83
2021/01/29 09:42:57;;;;;;;17.53;11.03;;;;;;;0.45;87.24;98648.16;5016264;28;20186;-83
2021/01/29 09:45:26;;;;;;;20.37;11.90;;;;;;;0.44;87.58;98648.25;5016542;28;20250;-83
2021/01/29 09:47:58;;;;;;;16.87;10.50;;;;;;;0.43;87.67;98642.16;5016492;28;20566;-81
2021/01/29 09:50:25;;;;;;;17.67;11.33;;;;;;;0.43;87.62;98647.41;5016890;28;20194;-83
2021/01/29 09:53:08;;;;;;;17.43;11.80;;;;;;;0.42;87.28;98644.88;5015814;28;20672;-83
2021/01/29 09:55:37;;;;;;;18.47;11.33;;;;;;;0.40;87.44;98639.72;5015885;28;20214;-82
2021/01/29 09:58:12;;;;;;;20.70;13.27;;;;;;;0.40;87.33;98642.31;5015746;28;20297;-81
2021/01/29 10:00:41;;;;;;;22.17;13.00;;;;;;;0.41;87.52;98648.41;5017118;28;20190;-82
2021/01/29 10:03:14;;;;;;;22.23;13.83;;;;;;;0.39;87.52;98656.34;5016545;28;20207;-82
2021/01/29 10:05:46;;;;;;;21.53;14.60;;;;;;;0.39;87.75;98658.97;5015966;28;20277;-84
2021/01/29 10:08:16;;;;;;;23.20;14.90;;;;;;;0.39;87.52;98656.34;5016614;28;20617;-83
2021/01/29 10:10:57;;;;;;;21.13;14.30;;;;;;;0.39;87.78;98648.50;5016056;28;20188;-84
2021/01/29 10:13:37;;;;;;;26.07;15.63;;;;;;;0.40;87.62;98641.47;5016259;28;20198;-84
2021/01/29 10:16:19;;;;;;;23.53;14.80;;;;;;;0.40;87.45;98633.63;5016148;28;20625;-83
2021/01/29 10:18:55;;;;;;;21.50;14.13;;;;;;;0.41;87.62;98630.94;5016405;28;20191;-83
2021/01/29 10:21:38;;;;;;;22.27;15.20;;;;;;;0.41;87.63;98630.06;5017585;28;20191;-83
2021/01/29 10:24:13;;;;;;;23.53;14.80;;;;;;;0.43;87.60;98623.84;5017556;28;20259;-84
2021/01/29 10:26:47;;;;;;;26.20;15.40;;;;;;;0.44;87.84;98620.28;5017301;28;20625;-82
2021/01/29 10:29:20;;;;;;;25.17;14.43;;;;;;;0.46;87.51;98618.44;5021840;28;20190;-84
2021/01/29 10:31:55;;;;;;;22.13;14.40;;;;;;;0.47;87.49;98611.44;5024058;28;20190;-85
2021/01/29 10:34:37;;;;;;;22.77;15.03;;;;;;;0.48;87.72;98613.97;5039951;28;20232;-84
2021/01/29 10:37:09;;;;;;;21.33;13.70;;;;;;;0.50;87.82;98616.50;5040727;28;20187;-83
2021/01/29 10:39:52;;;;;;;23.97;14.97;;;;;;;0.50;87.83;98612.09;5030701;28;20224;-84
2021/01/29 10:42:24;;;;;;;21.37;13.43;;;;;;;0.50;87.71;98619.97;5022651;28;20183;-85
2021/01/29 10:44:52;;;;;;;24.53;14.70;;;;;;;0.50;87.81;98629.59;5022047;28;20295;-84
2021/01/29 10:47:24;;;;;;;23.37;14.83;;;;;;;0.48;87.60;98621.81;5021652;28;20203;-83
2021/01/29 10:49:55;;;;;;;23.07;15.73;;;;;;;0.48;87.26;98626.22;5023227;28;20194;-84
2021/01/29 10:52:36;;;;;;;21.47;13.77;;;;;;;0.47;87.79;98621.91;5022243;28;20197;-83
2021/01/29 10:55:05;;;;;;;23.17;12.90;;;;;;;0.47;87.55;98632.38;5022281;28;20237;-83
2021/01/29 10:57:41;;;;;;;19.70;13.13;;;;;;;0.46;87.77;98631.53;5022660;28;20261;-83
2021/01/29 11:00:14;;;;;;;22.97;15.10;;;;;;;0.46;87.98;98641.16;5021860;28;20213;-83
2021/01/29 11:02:45;;;;;;;24.27;15.93;;;;;;;0.47;87.76;98637.63;5022908;28;20210;-83
2021/01/29 11:05:14;;;;;;;24.90;14.77;;;;;;;0.47;87.77;98630.59;5022635;28;20223;-83
2021/01/29 11:07:44;;;;;;;23.17;14.03;;;;;;;0.48;87.74;98644.53;5022350;28;20207;-82
2021/01/29 11:10:20;;;;;;;20.97;14.70;;;;;;;0.49;87.33;98639.22;5021789;28;20215;-81
2021/01/29 11:12:54;;;;;;;20.07;14.47;;;;;;;0.48;87.67;98632.28;5021961;28;20605;-83
2021/01/29 11:15:25;;;;;;;21.83;14.70;;;;;;;0.51;87.88;98636.53;5020233;28;20763;-82
2021/01/29 11:17:56;;;;;;;21.43;14.53;;;;;;;0.49;87.58;98626.13;5021994;28;20211;-83
2021/01/29 11:20:28;;;;;;;17.63;11.90;;;;;;;0.52;87.81;98625.97;5019226;28;20187;-82
2021/01/29 11:23:02;;;;;;;17.90;11.97;;;;;;;0.53;87.83;98619.81;5023608;28;20202;-82
2021/01/29 11:25:54;;;;;;;13.93;9.90;;;;;;;0.54;87.93;98629.31;5018967;28;20241;-83
2021/01/29 11:28:36;;;;;;;13.33;9.37;;;;;;;0.56;87.66;98629.22;5018633;28;20187;-82
2021/01/29 11:31:10;;;;;;;17.87;11.67;;;;;;;0.58;87.71;98645.72;5019497;28;20256;-82
2021/01/29 11:33:39;;;;;;;17.07;11.63;;;;;;;0.58;87.83;98659.66;5019499;28;20244;-82
2021/01/29 11:36:12;;;;;;;15.60;11.30;;;;;;;0.62;88.26;98658.56;5019733;28;20248;-82
2021/01/29 11:38:47;;;;;;;16.03;10.93;;;;;;;0.63;87.83;98652.41;5021522;28;20206;-83
2021/01/29 11:41:31;;;;;;;15.53;11.27;;;;;;;0.64;87.85;98656.72;5013288;28;20596;-83
2021/01/29 11:44:08;;;;;;;17.70;11.83;;;;;;;0.67;87.79;98651.31;5001597;28;20206;-83
2021/01/29 11:46:40;;;;;;;16.03;11.07;;;;;;;0.69;87.70;98648.63;5020490;28;20206;-82
2021/01/29 11:49:12;;;;;;;18.27;12.20;;;;;;;0.69;87.86;98644.22;5019847;28;20191;-82
2021/01/29 11:51:41;;;;;;;16.83;12.00;;;;;;;0.69;87.73;98632.91;5020008;28;20191;-83
2021/01/29 11:54:15;;;;;;;15.83;11.27;;;;;;;0.71;87.62;98633.66;5019891;28;20254;-83
2021/01/29 11:56:46;;;;;;;15.70;11.60;;;;;;;0.71;87.43;98614.47;5038552;28;20202;-84
2021/01/29 11:59:26;;;;;;;13.03;9.60;;;;;;;0.71;87.57;98609.22;5020217;28;20560;-83
2021/01/29 12:02:02;;;;;;;14.57;9.97;;;;;;;0.70;87.60;98603.16;5019513;28;20217;-85
2021/01/29 12:04:38;;;;;;;13.67;9.83;;;;;;;0.69;87.49;98580.50;5019040;28;20227;-85
2021/01/29 12:07:08;;;;;;;13.73;10.00;;;;;;;0.69;87.64;98598.84;5005506;28;20207;-84
2021/01/29 12:09:42;;;;;;;13.83;9.90;;;;;;;0.67;87.33;98595.44;5020027;28;20206;-83
2021/01/29 12:12:15;;;;;;;13.93;10.13;;;;;;;0.65;87.35;98597.31;5022393;28;20207;-83
2021/01/29 12:14:55;;;;;;;15.00;10.93;;;;;;;0.63;87.50;98592.16;5020167;28;20280;-84
2021/01/29 12:17:24;;;;;;;13.40;9.73;;;;;;;0.64;87.44;98595.63;5013825;28;20666;-85
2021/01/29 12:19:57;;;;;;;13.43;10.27;;;;;;;0.64;87.59;98593.00;5019732;28;20229;-84